createdAt,value
2023-03-26T00:02:12.283Z,11.30
2023-03-26T00:04:58.961Z,11.34
2023-03-26T00:07:45.620Z,10.60
2023-03-26T00:10:32.567Z,9.49
2023-03-26T00:13:19.199Z,9.33
2023-03-26T00:16:05.959Z,10.01
2023-03-26T00:18:53.561Z,10.52
2023-03-26T00:21:43.289Z,10.84
2023-03-26T00:24:38.942Z,10.94
2023-03-26T00:27:27.376Z,11.00
2023-03-26T00:30:14.882Z,11.25
2023-03-26T00:33:02.911Z,11.35
2023-03-26T00:35:56.168Z,11.46
2023-03-26T00:38:46.276Z,11.61
2023-03-26T00:41:36.284Z,11.50
2023-03-26T00:44:23.092Z,10.38
2023-03-26T00:47:10.412Z,9.79
2023-03-26T00:49:57.023Z,10.40
2023-03-26T00:52:45.645Z,10.89
2023-03-26T00:55:35.349Z,11.26
2023-03-26T00:58:22.050Z,11.53
2023-03-26T01:01:16.217Z,11.69
2023-03-26T01:04:34.069Z,11.80
2023-03-26T01:07:28.278Z,11.23
2023-03-26T01:10:14.545Z,10.18
2023-03-26T01:13:01.345Z,10.48
2023-03-26T01:15:50.461Z,11.10
2023-03-26T01:18:40.450Z,11.46
2023-03-26T01:21:29.740Z,11.62
2023-03-26T01:24:16.403Z,11.72
2023-03-26T01:27:33.000Z,11.77
2023-03-26T01:30:34.754Z,11.76
2023-03-26T01:33:54.255Z,11.07
2023-03-26T01:37:05.523Z,9.81
2023-03-26T01:40:17.598Z,10.19
2023-03-26T01:43:36.303Z,10.99
2023-03-26T01:46:24.994Z,11.38
2023-03-26T01:49:12.637Z,11.49
2023-03-26T01:51:59.366Z,11.58
2023-03-26T01:54:46.155Z,11.71
2023-03-26T01:58:31.038Z,11.79
2023-03-26T02:01:59.346Z,11.62
2023-03-26T02:05:13.485Z,10.26
2023-03-26T02:08:22.057Z,10.34
2023-03-26T02:11:14.311Z,11.14
2023-03-26T02:14:06.528Z,11.68
2023-03-26T02:16:53.304Z,11.99
2023-03-26T02:19:43.064Z,11.65
2023-03-26T02:22:30.020Z,10.52
2023-03-26T02:25:20.568Z,9.72
2023-03-26T02:28:08.010Z,10.19
2023-03-26T02:30:57.140Z,10.97
2023-03-26T02:33:46.871Z,11.31
2023-03-26T02:36:35.236Z,11.53
2023-03-26T02:39:24.750Z,11.70
2023-03-26T02:42:15.678Z,11.85
2023-03-26T02:45:07.003Z,12.02
2023-03-26T02:48:14.533Z,12.20
2023-03-26T02:51:20.609Z,11.64
2023-03-26T02:54:18.311Z,10.39
2023-03-26T02:57:23.595Z,9.97
2023-03-26T03:00:28.447Z,10.76
2023-03-26T03:03:38.403Z,11.29
2023-03-26T03:06:39.873Z,11.56
2023-03-26T03:09:26.306Z,11.80
2023-03-26T03:12:42.504Z,11.99
2023-03-26T03:15:30.559Z,12.10
2023-03-26T03:18:17.327Z,12.18
2023-03-26T03:21:05.490Z,12.24
2023-03-26T03:23:56.329Z,12.07
2023-03-26T03:26:49.638Z,11.02
2023-03-26T03:29:44.360Z,9.96
2023-03-26T03:32:49.851Z,9.81
2023-03-26T03:35:39.518Z,10.62
2023-03-26T03:38:26.403Z,11.21
2023-03-26T03:41:13.599Z,11.53
2023-03-26T03:44:02.159Z,11.74
2023-03-26T03:46:53.473Z,11.89
2023-03-26T03:49:40.707Z,12.05
2023-03-26T03:52:27.572Z,12.16
2023-03-26T03:55:14.688Z,12.24
2023-03-26T03:58:09.388Z,12.25
2023-03-26T04:01:00.218Z,12.26
2023-03-26T04:04:00.897Z,11.82
2023-03-26T04:06:59.358Z,10.58
2023-03-26T04:09:50.161Z,9.99
2023-03-26T04:12:37.169Z,10.66
2023-03-26T04:15:24.824Z,11.36
2023-03-26T04:18:11.654Z,11.73
2023-03-26T04:21:02.486Z,11.95
2023-03-26T04:23:49.812Z,12.11
2023-03-26T04:27:00.629Z,12.25
2023-03-26T04:29:53.807Z,12.26
2023-03-26T04:32:44.008Z,11.29
2023-03-26T04:35:36.161Z,10.22
2023-03-26T04:38:23.697Z,9.83
2023-03-26T04:41:15.002Z,10.57
2023-03-26T04:44:21.676Z,11.33
2023-03-26T04:47:15.424Z,11.66
2023-03-26T04:50:08.846Z,11.90
2023-03-26T04:52:57.664Z,12.04
2023-03-26T04:56:27.390Z,12.18
2023-03-26T04:59:37.090Z,12.21
2023-03-26T05:02:26.089Z,11.38
2023-03-26T05:05:13.877Z,10.37
2023-03-26T05:08:00.426Z,9.89
2023-03-26T05:10:46.848Z,10.65
2023-03-26T05:13:42.204Z,11.50
2023-03-26T05:16:31.171Z,11.95
2023-03-26T05:19:24.710Z,12.27
2023-03-26T05:22:12.678Z,12.47
2023-03-26T05:25:06.795Z,12.53
2023-03-26T05:27:53.384Z,12.35
2023-03-26T05:30:42.801Z,11.37
2023-03-26T05:33:29.796Z,10.48
2023-03-26T05:36:23.807Z,10.17
2023-03-26T05:39:25.077Z,10.88
2023-03-26T05:42:21.266Z,11.49
2023-03-26T05:45:21.760Z,11.96
2023-03-26T05:48:08.672Z,12.24
2023-03-26T05:50:57.868Z,12.42
2023-03-26T05:53:46.103Z,12.55
2023-03-26T05:56:52.134Z,12.39
2023-03-26T05:59:57.253Z,11.17
2023-03-26T06:03:02.703Z,10.19
2023-03-26T06:06:19.883Z,9.58
2023-03-26T06:09:14.093Z,10.22
2023-03-26T06:12:01.422Z,11.08
2023-03-26T06:14:49.745Z,11.54
2023-03-26T06:17:39.412Z,11.83
2023-03-26T06:20:46.620Z,12.12
2023-03-26T06:23:48.395Z,12.31
2023-03-26T06:26:52.035Z,12.40
2023-03-26T06:29:38.532Z,12.57
2023-03-26T06:32:45.143Z,12.43
2023-03-26T06:35:37.351Z,11.47
2023-03-26T06:38:24.813Z,10.69
2023-03-26T06:41:11.449Z,10.43
2023-03-26T06:44:21.577Z,11.36
2023-03-26T06:47:27.895Z,12.05
2023-03-26T06:50:33.062Z,12.60
2023-03-26T06:53:32.685Z,12.92
2023-03-26T06:56:36.323Z,12.92
2023-03-26T06:59:39.422Z,11.97
2023-03-26T07:02:44.981Z,11.23
2023-03-26T11:45:21.948Z,12.20
2023-03-26T11:48:30.133Z,11.71
2023-03-26T11:51:39.658Z,11.65
2023-03-26T11:54:27.596Z,11.65
2023-03-26T11:57:27.905Z,11.75
2023-03-26T12:00:20.408Z,12.76
2023-03-26T12:03:15.370Z,12.76
2023-03-26T12:06:02.211Z,12.20
2023-03-26T12:08:50.528Z,11.86
2023-03-26T12:11:38.994Z,11.47
2023-03-26T12:14:29.630Z,11.45
2023-03-26T12:17:32.064Z,12.40
2023-03-26T12:20:34.221Z,12.69
2023-03-26T12:23:55.568Z,11.84
2023-03-26T12:26:45.825Z,10.98
2023-03-26T12:29:33.908Z,10.95
2023-03-26T12:32:22.465Z,11.98
2023-03-26T12:35:35.502Z,12.65
2023-03-26T12:38:35.059Z,11.95
2023-03-26T12:44:43.867Z,11.18
2023-03-26T12:44:59.389Z,10.68
2023-03-26T12:47:56.987Z,11.64
2023-03-26T12:51:32.617Z,12.70
2023-03-26T12:54:55.312Z,12.45
2023-03-26T12:58:14.072Z,11.66
2023-03-26T13:01:41.435Z,11.01
2023-03-26T13:05:22.672Z,11.21
2023-03-26T13:08:37.623Z,12.60
2023-03-26T13:11:50.713Z,12.72
2023-03-26T13:15:07.372Z,11.76
2023-03-26T13:18:19.112Z,11.00
2023-03-26T13:21:30.441Z,10.88
2023-03-26T13:24:56.937Z,11.83
2023-03-26T13:27:45.788Z,11.68
2023-03-26T13:30:56.188Z,10.96
2023-03-26T13:34:27.852Z,10.30
2023-03-26T13:37:36.616Z,9.88
2023-03-26T13:41:11.757Z,10.71
2023-03-26T13:44:01.601Z,11.65
2023-03-26T13:47:16.228Z,11.18
2023-03-26T13:50:18.008Z,10.46
2023-03-26T13:53:28.329Z,10.00
2023-03-26T13:56:20.013Z,10.23
2023-03-26T13:59:31.298Z,11.47
2023-03-26T14:02:32.793Z,12.25
2023-03-26T14:05:44.945Z,11.72
2023-03-26T14:08:47.189Z,11.30
2023-03-26T14:11:57.427Z,11.08
2023-03-26T14:15:05.679Z,10.92
2023-03-26T14:18:01.318Z,10.82
2023-03-26T14:21:06.813Z,10.77
2023-03-26T14:24:08.029Z,10.74
2023-03-26T14:27:12.568Z,10.80
2023-03-26T14:30:36.591Z,10.72
2023-03-26T14:33:44.270Z,10.53
2023-03-26T14:36:58.548Z,10.45
2023-03-26T14:40:14.437Z,10.49
2023-03-26T14:43:03.782Z,10.58
2023-03-26T14:46:31.161Z,10.47
2023-03-26T14:49:40.291Z,10.33
2023-03-26T14:52:52.782Z,10.21
2023-03-26T14:56:06.525Z,10.08
2023-03-26T14:59:43.587Z,9.89
2023-03-26T15:03:02.410Z,9.66
2023-03-26T15:06:35.342Z,9.45
2023-03-26T15:10:01.119Z,9.38
2023-03-26T15:13:42.706Z,9.35
2023-03-26T15:17:08.839Z,9.21
2023-03-26T15:20:31.373Z,8.96
2023-03-26T15:23:38.881Z,8.68
2023-03-26T15:27:01.266Z,8.49
2023-03-26T15:30:09.715Z,8.32
2023-03-26T15:33:26.022Z,8.15
2023-03-26T15:36:29.729Z,7.95
2023-03-26T15:39:59.434Z,7.82
2023-03-26T15:43:01.223Z,7.62
2023-03-26T15:46:11.509Z,7.50
2023-03-26T15:49:24.389Z,7.41
2023-03-26T15:52:35.988Z,7.32
2023-03-26T15:55:52.033Z,7.21
2023-03-26T15:59:16.189Z,7.57
2023-03-26T16:02:07.042Z,9.01
2023-03-26T16:05:28.837Z,9.15
2023-03-26T16:08:52.376Z,8.25
2023-03-26T16:11:52.199Z,7.59
2023-03-26T16:14:47.495Z,7.20
2023-03-26T16:18:18.907Z,6.90
2023-03-26T16:21:38.718Z,6.58
2023-03-26T16:24:30.376Z,6.34
2023-03-26T16:27:33.464Z,6.16
2023-03-26T16:30:29.843Z,6.01
2023-03-26T16:33:20.640Z,5.87
2023-03-26T16:36:35.993Z,5.77
2023-03-26T16:39:43.676Z,5.66
2023-03-26T16:42:39.349Z,6.10
2023-03-26T16:45:47.926Z,7.34
2023-03-26T16:48:47.337Z,7.32
2023-03-26T16:52:10.632Z,6.67
2023-03-26T16:55:26.633Z,6.13
2023-03-26T16:58:53.240Z,5.78
2023-03-26T17:02:04.465Z,5.49
2023-03-26T17:05:08.918Z,5.25
2023-03-26T17:08:35.391Z,5.02
2023-03-26T17:11:48.057Z,4.79
2023-03-26T17:15:05.346Z,4.59
2023-03-26T17:18:20.792Z,4.43
2023-03-26T17:21:25.764Z,5.06
2023-03-26T17:24:29.038Z,6.31
2023-03-26T17:27:55.187Z,5.96
2023-03-26T17:31:03.006Z,5.27
2023-03-26T17:33:50.141Z,4.76
2023-03-26T17:36:42.943Z,4.45
2023-03-26T17:39:38.331Z,4.20
2023-03-26T17:42:37.707Z,4.36
2023-03-26T17:45:29.907Z,5.61
2023-03-26T17:48:21.821Z,6.59
2023-03-26T17:51:52.099Z,6.34
2023-03-26T17:54:46.884Z,5.42
2023-03-26T17:57:43.708Z,4.93
2023-03-26T18:00:43.002Z,4.58
2023-03-26T18:03:43.497Z,4.34
2023-03-26T18:07:13.080Z,4.41
2023-03-26T18:10:42.673Z,5.94
2023-03-26T18:14:23.449Z,6.70
2023-03-26T18:17:11.527Z,5.86
2023-03-26T18:20:06.569Z,5.33
2023-03-26T18:22:53.984Z,4.92
2023-03-26T18:30:10.026Z,5.15
2023-03-26T18:33:23.834Z,6.78
2023-03-26T18:36:25.722Z,7.27
2023-03-26T18:39:33.578Z,6.32
2023-03-26T18:42:27.285Z,5.61
2023-03-26T18:45:41.325Z,5.14
2023-03-26T18:48:58.975Z,4.78
2023-03-26T18:51:56.696Z,4.48
2023-03-26T18:54:48.245Z,4.25
2023-03-26T18:57:35.994Z,4.42
2023-03-26T19:00:27.295Z,5.55
2023-03-26T19:03:18.936Z,6.58
2023-03-26T19:06:13.069Z,6.77
2023-03-26T19:09:03.103Z,5.96
2023-03-26T19:11:56.476Z,5.29
2023-03-26T19:14:54.891Z,4.84
2023-03-26T19:17:52.914Z,4.88
2023-03-26T19:20:49.781Z,6.02
2023-03-26T19:23:40.488Z,6.95
2023-03-26T19:26:27.230Z,6.88
2023-03-26T19:29:18.691Z,6.13
2023-03-26T19:32:33.184Z,5.55
2023-03-26T19:35:22.976Z,5.13
2023-03-26T19:38:27.174Z,5.18
2023-03-26T19:41:45.235Z,6.33
2023-03-26T19:44:32.930Z,7.33
2023-03-26T19:47:39.115Z,7.31
2023-03-26T19:50:36.350Z,6.40
2023-03-26T19:53:34.812Z,5.82
2023-03-26T19:56:22.320Z,5.37
2023-03-26T19:59:08.930Z,5.44
2023-03-26T20:01:55.349Z,6.49
2023-03-26T20:04:43.362Z,7.41
2023-03-26T20:07:35.284Z,8.01
2023-03-26T20:10:23.707Z,8.13
2023-03-26T20:13:17.205Z,7.27
2023-03-26T20:16:14.777Z,6.47
2023-03-26T20:19:07.814Z,5.94
2023-03-26T20:22:01.021Z,5.70
2023-03-26T20:24:47.967Z,6.60
2023-03-26T20:27:35.094Z,7.45
2023-03-26T20:30:37.030Z,8.13
2023-03-26T20:33:26.490Z,8.26
2023-03-26T20:36:13.622Z,7.42
2023-03-26T20:39:04.899Z,6.66
2023-03-26T20:41:54.180Z,6.09
2023-03-26T20:44:46.484Z,5.96
2023-03-26T20:47:37.083Z,6.89
2023-03-26T20:50:24.203Z,7.69
2023-03-26T20:53:17.676Z,8.30
2023-03-26T20:56:20.306Z,8.46
2023-03-26T20:59:11.493Z,7.50
2023-03-26T21:01:58.775Z,6.74
2023-03-26T21:04:47.669Z,6.23
2023-03-26T21:07:34.563Z,6.15
2023-03-26T21:10:22.483Z,7.15
2023-03-26T21:13:30.637Z,8.13
2023-03-26T21:16:17.501Z,8.81
2023-03-26T21:19:05.170Z,8.13
2023-03-26T21:22:05.932Z,7.18
2023-03-26T21:24:58.508Z,6.44
2023-03-26T21:28:09.128Z,6.75
2023-03-26T21:30:56.581Z,7.86
2023-03-26T21:33:46.071Z,8.05
2023-03-26T21:36:33.081Z,7.18
2023-03-26T21:39:20.702Z,6.43
2023-03-26T21:42:07.852Z,6.89
2023-03-26T21:44:55.510Z,7.62
2023-03-26T21:47:42.981Z,8.10
2023-03-26T21:50:30.597Z,7.70
2023-03-26T21:53:17.924Z,6.73
2023-03-26T21:56:40.772Z,6.01
2023-03-26T21:59:30.360Z,6.43
2023-03-26T22:02:36.319Z,7.30
2023-03-26T22:05:43.324Z,7.68
2023-03-26T22:08:38.233Z,6.85
2023-03-26T22:11:25.449Z,6.02
2023-03-26T22:14:12.914Z,5.84
2023-03-26T22:17:01.648Z,6.74
2023-03-26T22:19:48.643Z,7.53
2023-03-26T22:22:35.919Z,8.04
2023-03-26T22:25:23.427Z,8.34
2023-03-26T22:28:09.933Z,7.77
2023-03-26T22:30:56.683Z,6.76
2023-03-26T22:33:51.968Z,6.02
2023-03-26T22:36:40.453Z,6.14
2023-03-26T22:39:26.955Z,6.94
2023-03-26T22:42:13.491Z,7.57
2023-03-26T22:45:00.163Z,7.91
2023-03-26T22:47:46.676Z,7.32
2023-03-26T22:50:33.294Z,6.38
2023-03-26T22:53:20.321Z,5.63
2023-03-26T22:56:11.095Z,5.22
2023-03-26T22:58:57.618Z,5.90
2023-03-26T23:01:44.895Z,6.71
2023-03-26T23:04:32.414Z,7.02
2023-03-26T23:07:19.206Z,6.24
2023-03-26T23:10:08.720Z,5.50
2023-03-26T23:12:55.952Z,4.99
2023-03-26T23:15:44.494Z,4.62
2023-03-26T23:18:31.334Z,4.65
2023-03-26T23:21:21.912Z,5.66
2023-03-26T23:24:08.506Z,6.56
2023-03-26T23:26:55.307Z,7.13
2023-03-26T23:29:41.758Z,6.84
2023-03-26T23:32:28.756Z,5.94
2023-03-26T23:35:15.981Z,5.25
2023-03-26T23:38:02.747Z,4.80
2023-03-26T23:40:57.269Z,5.37
2023-03-26T23:43:53.521Z,6.52
2023-03-26T23:46:43.642Z,7.43
2023-03-26T23:49:30.122Z,7.53
2023-03-26T23:52:16.700Z,6.39
2023-03-26T23:55:03.646Z,5.46
2023-03-26T23:57:51.013Z,4.77
